createdAt,value
2018-04-15T03:00:57.762Z,86.47
2018-04-15T03:01:58.257Z,86.18
2018-04-15T03:02:57.988Z,86.28
2018-04-15T03:03:58.285Z,86.18
2018-04-15T03:04:58.334Z,86.18
2018-04-15T03:05:58.511Z,86.09
2018-04-15T03:06:58.661Z,86.28
2018-04-15T03:07:58.881Z,86.57
2018-04-15T03:08:59.832Z,87.32
2018-04-15T03:09:59.214Z,87.13
2018-04-15T03:10:59.365Z,87.04
2018-04-15T03:11:59.497Z,86.94
2018-04-15T03:12:59.621Z,87.04
2018-04-15T03:13:59.815Z,86.85
2018-04-15T03:14:59.952Z,86.99
2018-04-15T03:16:00.130Z,87.71
2018-04-15T03:17:00.282Z,87.61
2018-04-15T03:18:00.479Z,88.04
2018-04-15T03:19:00.639Z,88.04
2018-04-15T03:20:00.751Z,88.37
2018-04-15T03:21:00.973Z,87.85
2018-04-15T03:22:01.034Z,88.13
2018-04-15T03:23:01.222Z,87.90
2018-04-15T03:24:01.390Z,87.99
2018-04-15T03:25:01.576Z,88.09
2018-04-15T03:26:01.772Z,88.18
2018-04-15T03:27:01.853Z,87.99
2018-04-15T03:28:02.016Z,87.85
2018-04-15T03:29:02.184Z,88.09
2018-04-15T03:30:02.337Z,88.52
2018-04-15T03:31:02.474Z,88.23
2018-04-15T03:32:02.642Z,88.56
2018-04-15T03:33:02.777Z,87.66
2018-04-15T03:34:02.907Z,88.13
2018-04-15T03:35:03.079Z,87.76
2018-04-15T03:36:03.310Z,87.85
2018-04-15T03:37:03.432Z,88.52
2018-04-15T03:38:03.610Z,88.71
2018-04-15T03:39:03.734Z,88.23
2018-04-15T03:40:03.912Z,88.42
2018-04-15T03:41:04.012Z,88.52
2018-04-15T03:42:04.264Z,88.61
2018-04-15T03:43:04.385Z,88.61
2018-04-15T03:44:04.487Z,88.52
2018-04-15T03:45:04.667Z,88.80
2018-04-15T03:46:04.871Z,88.52
2018-04-15T03:47:04.964Z,88.42
2018-04-15T03:48:05.185Z,88.42
2018-04-15T03:49:05.281Z,88.80
2018-04-15T03:50:05.479Z,89.00
2018-04-15T03:51:05.647Z,88.90
2018-04-15T03:52:05.824Z,89.47
2018-04-15T03:53:05.999Z,89.28
2018-04-15T03:54:06.155Z,89.28
2018-04-15T03:55:06.308Z,89.28
2018-04-15T03:56:06.496Z,89.66
2018-04-15T03:57:06.642Z,89.47
2018-04-15T03:58:06.777Z,89.00
2018-04-15T03:59:06.955Z,88.71
2018-04-15T04:00:07.290Z,89.00
2018-04-15T04:01:07.340Z,89.00
2018-04-15T04:02:07.520Z,88.33
2018-04-15T04:03:07.619Z,88.52
2018-04-15T04:04:07.869Z,89.09
2018-04-15T04:05:07.971Z,89.00
2018-04-15T04:06:08.160Z,88.90
2018-04-15T04:07:08.329Z,89.18
2018-04-15T04:08:08.469Z,88.80
2018-04-15T04:09:08.604Z,89.28
2018-04-15T04:10:08.749Z,89.18
2018-04-15T04:11:08.926Z,89.28
2018-04-15T04:12:09.089Z,89.47
2018-04-15T04:13:09.283Z,89.56
2018-04-15T04:14:09.448Z,89.37
2018-04-15T04:15:09.577Z,89.56
2018-04-15T04:16:09.811Z,89.66
2018-04-15T04:17:09.887Z,89.37
2018-04-15T04:18:10.047Z,89.94
2018-04-15T04:19:10.247Z,89.47
2018-04-15T04:20:10.326Z,89.56
2018-04-15T04:21:10.527Z,89.66
2018-04-15T04:22:10.781Z,89.75
2018-04-15T04:23:10.932Z,89.56
2018-04-15T04:24:10.993Z,89.94
2018-04-15T04:25:11.188Z,89.56
2018-04-15T04:26:11.509Z,89.85
2018-04-15T04:27:11.565Z,89.85
2018-04-15T04:28:11.688Z,89.75
2018-04-15T04:29:11.880Z,89.66
2018-04-15T04:30:12.064Z,89.94
2018-04-15T04:31:12.590Z,90.52
2018-04-15T04:32:12.327Z,90.80
2018-04-15T04:33:12.530Z,90.80
2018-04-15T04:34:12.683Z,90.89
2018-04-15T04:35:12.794Z,91.18
2018-04-15T04:36:12.965Z,91.04
2018-04-15T04:37:13.098Z,91.08
2018-04-15T04:38:13.318Z,91.18
2018-04-15T04:39:13.481Z,91.37
2018-04-15T04:40:13.595Z,91.28
2018-04-15T04:41:13.717Z,90.99
2018-04-15T04:42:13.889Z,91.28
2018-04-15T04:43:14.011Z,91.37
2018-04-15T04:44:14.207Z,91.37
2018-04-15T04:45:14.371Z,91.47
2018-04-15T04:46:14.530Z,91.08
2018-04-15T04:47:14.652Z,90.80
2018-04-15T04:48:14.786Z,91.37
2018-04-15T04:49:14.989Z,90.89
2018-04-15T04:50:15.267Z,90.89
2018-04-15T04:51:15.273Z,90.80
2018-04-15T04:52:15.467Z,90.42
2018-04-15T04:53:15.709Z,89.75
2018-04-15T04:54:15.857Z,90.04
2018-04-15T04:55:15.961Z,89.70
2018-04-15T04:56:16.141Z,89.66
2018-04-15T04:57:16.259Z,89.56
2018-04-15T04:58:16.409Z,89.56
2018-04-15T04:59:16.628Z,88.90
2018-04-15T05:00:16.784Z,89.18
2018-04-15T05:01:16.900Z,88.80
2018-04-15T05:02:17.086Z,88.52
2018-04-15T05:03:17.257Z,88.46
2018-04-15T05:04:17.370Z,88.52
2018-04-15T05:05:17.553Z,88.04
2018-04-15T05:06:17.704Z,87.95
2018-04-15T05:07:17.800Z,87.99
2018-04-15T05:08:18.029Z,88.09
2018-04-15T05:09:18.158Z,87.32
2018-04-15T05:10:18.363Z,87.71
2018-04-15T05:11:18.516Z,87.61
2018-04-15T05:12:18.698Z,87.52
2018-04-15T05:13:18.824Z,87.61
2018-04-15T05:14:18.978Z,87.71
2018-04-15T05:15:19.098Z,87.61
2018-04-15T05:16:19.256Z,88.09
2018-04-15T05:17:19.420Z,87.90
2018-04-15T05:18:19.578Z,88.66
2018-04-15T05:19:19.774Z,88.56
2018-04-15T05:20:19.925Z,87.71
2018-04-15T05:21:20.034Z,88.28
2018-04-15T05:22:20.254Z,88.18
2018-04-15T05:23:20.428Z,87.90
2018-04-15T05:24:20.565Z,87.90
2018-04-15T05:25:20.703Z,88.18
2018-04-15T05:26:20.962Z,88.13
2018-04-15T05:27:21.149Z,87.65
2018-04-15T05:28:21.220Z,87.18
2018-04-15T05:29:21.437Z,86.99
2018-04-15T05:30:21.608Z,87.08
2018-04-15T05:31:21.741Z,86.90
2018-04-15T05:32:21.879Z,87.18
2018-04-15T05:33:22.039Z,86.32
2018-04-15T05:34:22.273Z,86.51
2018-04-15T05:35:22.443Z,86.22
2018-04-15T05:36:22.580Z,85.51
2018-04-15T05:37:22.726Z,85.89
2018-04-15T05:38:22.912Z,85.22
2018-04-15T05:39:23.025Z,85.13
2018-04-15T05:40:23.234Z,84.46
2018-04-15T05:41:23.371Z,84.31
2018-04-15T05:42:23.557Z,84.12
2018-04-15T05:43:23.732Z,83.65
2018-04-15T05:44:23.866Z,83.65
2018-04-15T05:45:24.071Z,83.07
2018-04-15T05:46:24.210Z,83.07
2018-04-15T05:47:24.367Z,82.21
2018-04-15T05:48:24.487Z,82.21
2018-04-15T05:49:24.702Z,81.93
2018-04-15T05:50:24.821Z,81.40
2018-04-15T05:51:24.964Z,81.59
2018-04-15T05:52:25.186Z,81.40
2018-04-15T05:53:25.292Z,81.21
2018-04-15T05:54:25.556Z,81.12
2018-04-15T05:55:25.670Z,80.54
2018-04-15T05:56:25.798Z,80.83
2018-04-15T05:57:25.990Z,79.88
2018-04-15T05:58:26.349Z,79.88
2018-04-15T05:59:26.554Z,79.97
2018-04-15T06:00:26.516Z,80.44
2018-04-15T06:01:26.704Z,80.16
2018-04-15T06:02:26.794Z,80.73
2018-04-15T06:03:26.988Z,80.64
2018-04-15T06:04:27.113Z,80.54
2018-04-15T06:05:27.980Z,80.35
2018-04-15T06:06:27.512Z,80.07
2018-04-15T06:07:27.684Z,81.02
2018-04-15T06:08:27.822Z,80.16
2018-04-15T06:09:28.043Z,80.07
2018-04-15T06:10:28.160Z,80.16
2018-04-15T06:11:28.297Z,80.30
2018-04-15T06:12:28.456Z,79.35
2018-04-15T06:13:28.658Z,78.86
2018-04-15T06:14:28.790Z,78.96
2018-04-15T06:15:28.959Z,78.96
2018-04-15T06:16:29.058Z,78.58
2018-04-15T06:17:29.329Z,77.53
2018-04-15T06:18:29.419Z,77.82
2018-04-15T06:19:29.616Z,77.34
2018-04-15T06:20:29.813Z,77.15
2018-04-15T06:21:29.951Z,76.57
2018-04-15T06:22:30.073Z,77.06
2018-04-15T06:23:30.292Z,76.48
2018-04-15T06:24:30.455Z,77.25
2018-04-15T06:25:30.617Z,76.96
2018-04-15T06:26:30.783Z,77.00
2018-04-15T06:27:30.941Z,77.15
2018-04-15T06:28:31.101Z,77.95
2018-04-15T06:29:31.255Z,77.57
2018-04-15T06:30:31.402Z,77.67
2018-04-15T06:31:31.554Z,77.95
2018-04-15T06:32:31.748Z,77.86
2018-04-15T06:33:31.896Z,77.00
2018-04-15T06:34:32.080Z,77.57
2018-04-15T06:35:32.193Z,77.28
2018-04-15T06:36:32.343Z,76.71
2018-04-15T06:37:32.484Z,77.03
2018-04-15T06:38:32.694Z,75.51
2018-04-15T06:39:32.816Z,75.22
2018-04-15T06:40:33.004Z,75.60
2018-04-15T06:41:33.183Z,75.54
2018-04-15T06:42:33.354Z,74.88
2018-04-15T06:43:33.552Z,74.49
2018-04-15T06:44:33.728Z,73.77
2018-04-15T06:45:33.868Z,73.77
2018-04-15T06:46:34.033Z,73.00
2018-04-15T06:47:34.168Z,73.10
2018-04-15T06:48:34.349Z,72.72
2018-04-15T06:49:34.481Z,72.56
2018-04-15T06:50:34.675Z,71.70
2018-04-15T06:51:34.815Z,71.89
2018-04-15T06:52:34.994Z,70.56
2018-04-15T06:53:35.199Z,69.60
2018-04-15T06:54:35.278Z,69.41
2018-04-15T06:55:35.490Z,69.02
2018-04-15T06:56:35.653Z,69.60
2018-04-15T06:57:35.829Z,69.60
2018-04-15T06:58:35.982Z,69.31
2018-04-15T06:59:36.103Z,69.12
2018-04-15T07:00:36.261Z,69.44
2018-04-15T07:01:36.585Z,68.35
2018-04-15T07:02:36.672Z,68.07
2018-04-15T07:03:36.771Z,68.29
2018-04-15T07:04:36.997Z,68.96
2018-04-15T07:05:37.128Z,68.01
2018-04-15T07:06:37.251Z,67.72
2018-04-15T07:07:37.414Z,67.63
2018-04-15T07:08:37.615Z,67.97
2018-04-15T07:09:37.806Z,68.16
2018-04-15T07:10:37.893Z,69.60
2018-04-15T07:11:38.064Z,69.27
2018-04-15T07:12:38.192Z,69.27
2018-04-15T07:13:38.446Z,69.24
2018-04-15T07:14:38.609Z,70.42
2018-04-15T07:15:38.790Z,71.53
2018-04-15T07:16:38.917Z,72.87
2018-04-15T07:17:39.133Z,72.87
2018-04-15T07:18:39.256Z,73.35
2018-04-15T07:19:39.418Z,73.73
2018-04-15T07:20:39.604Z,74.88
2018-04-15T07:21:39.774Z,74.59
2018-04-15T07:22:39.887Z,74.40
2018-04-15T07:23:40.067Z,74.11
2018-04-15T07:24:40.190Z,73.63
2018-04-15T07:25:40.352Z,73.44
2018-04-15T07:26:40.562Z,73.63
2018-04-15T07:27:40.698Z,72.97
2018-04-15T07:28:40.947Z,72.49
2018-04-15T07:29:41.074Z,73.48
2018-04-15T07:30:41.186Z,73.48
2018-04-15T07:31:41.364Z,73.58
2018-04-15T07:32:41.527Z,73.67
2018-04-15T07:33:41.740Z,73.29
2018-04-15T07:34:41.830Z,72.53
2018-04-15T07:35:42.041Z,73.00
2018-04-15T07:36:42.218Z,72.72
2018-04-15T07:37:42.357Z,72.05
2018-04-15T07:38:42.582Z,72.08
2018-04-15T07:39:42.740Z,71.51
2018-04-15T07:40:42.900Z,71.03
2018-04-15T07:41:43.058Z,70.94
2018-04-15T07:42:43.180Z,70.17
2018-04-15T07:43:43.417Z,70.94
2018-04-15T07:44:43.572Z,69.50
2018-04-15T07:45:43.643Z,69.31
2018-04-15T07:46:43.889Z,68.87
2018-04-15T07:47:44.028Z,69.06
2018-04-15T07:48:44.161Z,68.20
2018-04-15T07:49:44.389Z,68.20
2018-04-15T07:50:44.510Z,68.10
2018-04-15T07:51:44.704Z,67.94
2018-04-15T07:52:44.801Z,67.27
2018-04-15T07:53:44.995Z,65.55
2018-04-15T07:54:45.174Z,64.88
2018-04-15T07:55:45.308Z,63.93
2018-04-15T07:56:45.539Z,63.93
2018-04-15T07:57:45.729Z,64.69
2018-04-15T07:58:45.855Z,65.17
2018-04-15T07:59:46.035Z,64.69
2018-04-15T08:00:46.131Z,64.75
2018-04-15T08:01:46.251Z,64.88
2018-04-15T08:02:46.487Z,64.85
2018-04-15T08:03:46.636Z,64.69
2018-04-15T08:04:46.799Z,65.08
2018-04-15T08:05:46.927Z,66.22
2018-04-15T08:06:47.117Z,66.61
2018-04-15T08:07:47.375Z,66.61
2018-04-15T08:08:47.399Z,66.51
2018-04-15T08:09:47.601Z,65.65
2018-04-15T08:10:47.745Z,65.94
2018-04-15T08:11:47.990Z,66.80
2018-04-15T08:12:48.094Z,66.89
2018-04-15T08:13:48.258Z,66.86
2018-04-15T08:14:48.381Z,66.76
2018-04-15T08:15:48.552Z,67.43
2018-04-15T08:16:48.686Z,67.72
2018-04-15T08:17:48.869Z,68.39
2018-04-15T08:18:49.045Z,68.77
2018-04-15T08:19:49.198Z,69.35
2018-04-15T08:20:49.324Z,68.71
2018-04-15T08:21:49.539Z,68.42
2018-04-15T08:22:49.781Z,68.42
2018-04-15T08:23:49.851Z,68.04
2018-04-15T08:24:50.047Z,67.76
2018-04-15T08:25:50.229Z,67.56
2018-04-15T08:26:50.429Z,66.70
2018-04-15T08:27:50.591Z,67.08
2018-04-15T08:28:50.795Z,66.80
2018-04-15T08:29:50.921Z,67.27
2018-04-15T08:30:51.050Z,67.02
2018-04-15T08:31:51.299Z,67.41
2018-04-15T08:32:51.450Z,68.74
2018-04-15T08:33:51.579Z,68.84
2018-04-15T08:34:51.744Z,67.11
2018-04-15T08:35:52.041Z,67.41
2018-04-15T08:36:52.149Z,66.86
2018-04-15T08:37:52.282Z,65.42
2018-04-15T08:38:52.383Z,66.45
2018-04-15T08:39:52.572Z,66.35
2018-04-15T08:40:52.769Z,66.09
2018-04-15T08:41:52.908Z,65.23
2018-04-15T08:42:53.100Z,65.46
2018-04-15T08:43:53.246Z,65.20
2018-04-15T08:44:53.381Z,61.75
2018-04-15T08:45:53.538Z,61.02
2018-04-15T08:46:53.748Z,60.28
2018-04-15T08:47:53.900Z,59.73
2018-04-15T08:48:54.008Z,58.51
2018-04-15T08:49:54.219Z,56.91
2018-04-15T08:50:54.396Z,56.36
2018-04-15T08:51:54.579Z,55.40
2018-04-15T08:52:54.725Z,54.27
2018-04-15T08:53:55.029Z,53.40
2018-04-15T08:54:55.132Z,53.43
2018-04-15T08:55:55.279Z,50.49
2018-04-15T08:56:55.388Z,49.07
2018-04-15T08:57:55.603Z,47.36
2018-04-15T08:58:55.784Z,47.07
2018-04-15T08:59:55.930Z,45.55
2018-04-15T09:00:56.165Z,44.10
2018-04-15T09:01:56.287Z,44.01
2018-04-15T09:02:56.421Z,44.39
2018-04-15T09:03:56.612Z,44.39
2018-04-15T09:04:56.772Z,44.68
2018-04-15T09:05:56.935Z,43.81
2018-04-15T09:06:57.105Z,42.68
2018-04-15T09:07:57.271Z,42.48
2018-04-15T09:08:57.430Z,42.50
2018-04-15T09:09:58.475Z,42.21
2018-04-15T09:10:57.792Z,41.54
2018-04-15T09:11:58.025Z,41.08
2018-04-15T09:12:58.148Z,38.85
2018-04-15T09:13:58.377Z,38.97
2018-04-15T09:14:58.573Z,37.44
2018-04-15T09:15:58.766Z,36.86
2018-04-15T09:16:58.851Z,36.38
2018-04-15T09:17:59.022Z,36.68
2018-04-15T09:18:59.289Z,36.57
2018-04-15T09:19:59.487Z,36.88
2018-04-15T09:20:59.534Z,37.36
2018-04-15T09:21:59.804Z,38.21
2018-04-15T09:22:59.966Z,38.99
2018-04-15T09:24:00.091Z,38.81
2018-04-15T09:25:00.241Z,38.43
2018-04-15T09:26:00.463Z,38.23
2018-04-15T09:27:00.580Z,37.73
2018-04-15T09:28:00.791Z,38.60
2018-04-15T09:29:01.003Z,40.05
2018-04-15T09:30:01.137Z,40.25
2018-04-15T09:31:01.301Z,39.94
2018-04-15T09:32:01.509Z,41.00
2018-04-15T09:33:01.693Z,38.85
2018-04-15T09:34:01.792Z,39.28
2018-04-15T09:35:01.971Z,38.54
2018-04-15T09:36:02.122Z,38.09
2018-04-15T09:37:02.366Z,36.27
2018-04-15T09:38:02.528Z,34.66
2018-04-15T09:39:02.702Z,32.26
2018-04-15T09:40:02.886Z,30.43
2018-04-15T09:41:03.061Z,31.73
2018-04-15T09:42:03.252Z,31.27
2018-04-15T09:43:03.373Z,29.33
2018-04-15T09:44:03.523Z,27.56
2018-04-15T09:45:03.706Z,28.47
2018-04-15T09:46:03.994Z,26.03
2018-04-15T09:47:04.015Z,26.13
2018-04-15T09:48:04.296Z,26.24
2018-04-15T09:49:04.417Z,26.07
2018-04-15T09:50:04.666Z,24.90
2018-04-15T09:51:04.794Z,24.80
2018-04-15T09:52:04.974Z,27.25
2018-04-15T09:53:05.118Z,25.08
2018-04-15T09:54:05.328Z,28.42
2018-04-15T09:55:05.500Z,25.32
2018-04-15T09:56:05.664Z,23.96
2018-04-15T09:57:05.842Z,23.79
2018-04-15T09:58:05.946Z,22.91
2018-04-15T09:59:06.144Z,22.91
2018-04-15T10:00:06.310Z,22.63
2018-04-15T10:01:06.531Z,22.45
2018-04-15T10:02:06.675Z,23.23
2018-04-15T10:03:06.867Z,23.86
2018-04-15T10:04:07.158Z,26.10
2018-04-15T10:05:07.300Z,26.59
2018-04-15T10:06:07.433Z,24.43
2018-04-15T10:07:07.643Z,24.13
2018-04-15T10:08:07.797Z,26.68
2018-04-15T10:09:07.987Z,25.23
2018-04-15T10:10:08.197Z,24.43
2018-04-15T10:11:08.391Z,25.02
2018-04-15T10:12:08.483Z,24.64
2018-04-15T10:13:08.755Z,24.04
2018-04-15T10:14:09.001Z,25.61
2018-04-15T10:15:09.085Z,25.90
2018-04-15T10:16:09.231Z,26.79
2018-04-15T10:17:09.456Z,24.16
2018-04-15T10:18:09.641Z,23.57
2018-04-15T10:19:09.829Z,25.13
2018-04-15T10:20:10.094Z,24.33
2018-04-15T10:21:10.546Z,24.82
2018-04-15T10:22:10.383Z,25.15
2018-04-15T10:23:10.596Z,24.55
2018-04-15T10:24:10.718Z,24.08
2018-04-15T10:25:10.874Z,22.41
2018-04-15T10:26:11.114Z,24.74
2018-04-15T10:27:11.271Z,24.02
2018-04-15T10:28:11.377Z,24.89
2018-04-15T10:29:11.565Z,26.73
2018-04-15T10:30:11.799Z,25.85
2018-04-15T10:31:12.489Z,24.66
2018-04-15T10:32:12.209Z,25.91
2018-04-15T10:33:12.429Z,26.28
2018-04-15T10:34:12.616Z,29.60
2018-04-15T10:35:12.824Z,26.39
2018-04-15T10:36:12.990Z,26.40
2018-04-15T10:37:13.150Z,27.26
2018-04-15T10:38:13.365Z,28.23
2018-04-15T10:39:13.562Z,27.06
2018-04-15T10:40:13.729Z,27.28
2018-04-15T10:41:13.873Z,26.70
2018-04-15T10:42:14.120Z,26.14
2018-04-15T10:43:14.300Z,24.68
2018-04-15T10:44:14.480Z,25.37
2018-04-15T10:45:14.614Z,25.50
2018-04-15T10:46:14.790Z,23.85
2018-04-15T10:47:15.196Z,22.48
2018-04-15T10:48:15.074Z,22.88
2018-04-15T10:49:15.305Z,22.21
2018-04-15T10:50:15.456Z,22.91
2018-04-15T10:51:15.659Z,21.15
2018-04-15T10:52:15.830Z,20.17
2018-04-15T10:53:16.032Z,19.98
2018-04-15T10:54:16.122Z,22.14
2018-04-15T10:55:16.326Z,22.53
2018-04-15T10:56:16.523Z,19.86
2018-04-15T10:57:16.665Z,20.34
2018-04-15T10:58:16.903Z,21.21
2018-04-15T10:59:17.151Z,21.60
2018-04-15T11:00:17.321Z,21.89
2018-04-15T11:01:17.517Z,21.11
2018-04-15T11:02:17.677Z,21.51
2018-04-15T11:03:17.871Z,21.44
2018-04-15T11:04:18.027Z,22.34
2018-04-15T11:05:18.205Z,19.89
2018-04-15T11:06:18.380Z,21.37
2018-04-15T11:07:18.556Z,18.83
2018-04-15T11:08:18.755Z,17.35
2018-04-15T11:09:18.937Z,17.94
2018-04-15T11:10:19.066Z,18.42
2018-04-15T11:11:19.269Z,18.62
2018-04-15T11:12:19.410Z,18.41
2018-04-15T11:13:19.556Z,19.08
2018-04-15T11:14:19.777Z,19.67
2018-04-15T11:15:20.020Z,19.67
2018-04-15T11:16:20.168Z,18.51
2018-04-15T11:17:20.302Z,17.72
2018-04-15T11:18:20.475Z,18.41
2018-04-15T11:19:20.629Z,18.04
2018-04-15T11:20:20.857Z,16.67
2018-04-15T11:21:21.030Z,16.87
2018-04-15T11:22:21.158Z,17.66
2018-04-15T11:23:21.676Z,18.65
2018-04-15T11:24:21.634Z,16.37
2018-04-15T11:25:21.824Z,18.96
2018-04-15T11:26:21.964Z,20.48
2018-04-15T11:27:22.217Z,22.02
2018-04-15T11:28:22.363Z,23.75
2018-04-15T11:29:22.552Z,24.94
2018-04-15T11:30:22.684Z,25.42
2018-04-15T11:31:22.931Z,23.57
2018-04-15T11:32:23.084Z,23.52
2018-04-15T11:33:23.263Z,24.87
2018-04-15T11:34:23.368Z,26.00
2018-04-15T11:35:23.584Z,26.40
2018-04-15T11:36:23.803Z,25.90
2018-04-15T11:37:24.012Z,26.78
2018-04-15T11:38:24.224Z,26.56
2018-04-15T11:39:24.335Z,26.28
2018-04-15T11:40:24.595Z,26.48
2018-04-15T11:41:24.734Z,27.15
2018-04-15T11:42:24.917Z,26.97
2018-04-15T11:43:25.127Z,26.78
2018-04-15T11:44:25.379Z,26.97
2018-04-15T11:45:25.490Z,27.94
2018-04-15T11:46:25.587Z,27.14
2018-04-15T11:47:25.868Z,27.40
2018-04-15T11:48:25.985Z,27.32
2018-04-15T11:49:26.198Z,28.59
2018-04-15T11:50:26.332Z,27.35
2018-04-15T11:51:26.580Z,26.38
2018-04-15T11:52:26.688Z,27.18
2018-04-15T11:53:26.840Z,26.81
2018-04-15T11:54:27.037Z,26.62
2018-04-15T11:55:27.265Z,27.04
2018-04-15T11:56:27.444Z,24.43
2018-04-15T11:57:27.583Z,23.36
2018-04-15T11:58:27.807Z,19.76
2018-04-15T11:59:27.991Z,20.45
2018-04-15T12:00:28.085Z,22.25
2018-04-15T12:01:28.364Z,20.51
2018-04-15T12:02:28.529Z,18.98
2018-04-15T12:03:28.665Z,17.54
2018-04-15T12:04:28.834Z,16.28
2018-04-15T12:05:29.008Z,15.32
2018-04-15T12:06:29.142Z,15.73
2018-04-15T12:07:29.408Z,13.58
2018-04-15T12:08:29.512Z,13.29
2018-04-15T12:09:29.736Z,12.21
2018-04-15T12:10:29.888Z,11.72
2018-04-15T12:11:30.070Z,12.22
2018-04-15T12:12:30.260Z,12.13
2018-04-15T12:13:30.445Z,12.23
2018-04-15T12:14:30.690Z,10.44
2018-04-15T12:15:30.813Z,12.80
2018-04-15T12:16:31.070Z,13.29
2018-04-15T12:17:31.198Z,11.41
2018-04-15T12:18:31.359Z,11.91
2018-04-15T12:19:31.560Z,12.30
2018-04-15T12:20:31.735Z,14.24
2018-04-15T12:21:31.931Z,15.44
2018-04-15T12:22:32.091Z,13.06
2018-04-15T12:23:32.322Z,15.19
2018-04-15T12:24:32.502Z,15.18
2018-04-15T12:25:32.646Z,17.34
2018-04-15T12:26:32.823Z,17.74
2018-04-15T12:27:33.050Z,16.98
2018-04-15T12:28:33.201Z,15.03
2018-04-15T12:29:33.457Z,11.91
2018-04-15T12:30:33.661Z,12.51
2018-04-15T12:31:33.836Z,12.42
2018-04-15T12:32:33.981Z,10.96
2018-04-15T12:33:34.118Z,7.90
2018-04-15T12:34:34.308Z,9.89
2018-04-15T12:35:34.518Z,9.89
2018-04-15T12:36:34.780Z,7.90
2018-04-15T12:37:34.913Z,8.87
2018-04-15T12:38:35.039Z,11.41
2018-04-15T12:39:35.304Z,11.80
2018-04-15T12:40:35.447Z,12.48
2018-04-15T12:41:35.651Z,12.59
2018-04-15T12:42:35.772Z,10.91
2018-04-15T12:43:35.962Z,11.11
2018-04-15T12:44:36.154Z,11.77
2018-04-15T12:45:36.332Z,12.16
2018-04-15T12:46:36.564Z,12.92
2018-04-15T12:47:36.642Z,15.05
2018-04-15T12:48:36.982Z,15.22
2018-04-15T12:49:37.096Z,15.50
2018-04-15T12:50:37.351Z,16.38
2018-04-15T12:51:37.541Z,17.18
2018-04-15T12:52:37.625Z,16.00
2018-04-15T12:53:37.825Z,15.50
2018-04-15T12:54:37.959Z,15.11
2018-04-15T12:55:38.213Z,16.02
2018-04-15T12:56:38.365Z,16.15
2018-04-15T12:57:38.482Z,15.80
2018-04-15T12:58:38.726Z,12.96
